createdAt,value
2017-11-24T00:03:53.112Z,73.80
2017-11-24T00:08:54.686Z,74.00
2017-11-24T00:13:56.983Z,75.70
2017-11-24T00:18:59.282Z,75.40
2017-11-24T00:24:00.833Z,75.30
2017-11-24T00:29:03.095Z,75.40
2017-11-24T00:34:04.656Z,75.30
2017-11-24T00:39:06.175Z,75.30
2017-11-24T02:07:55.094Z,73.00
2017-11-24T02:12:57.427Z,72.40
2017-11-24T02:17:58.937Z,72.40
2017-11-24T02:23:00.427Z,72.00
2017-11-24T02:28:01.999Z,71.90
2017-11-24T02:33:03.516Z,71.00
2017-11-24T02:38:05.037Z,69.60
2017-11-24T02:43:06.540Z,69.80
2017-11-24T02:53:43.458Z,69.60
2017-11-24T02:58:45.695Z,68.70
2017-11-24T03:03:47.203Z,68.70
2017-11-24T03:08:49.600Z,68.90
2017-11-24T03:13:51.843Z,70.50
2017-11-24T03:18:53.338Z,70.50
2017-11-24T03:23:55.596Z,70.80
2017-11-24T03:28:57.269Z,70.80
2017-11-24T03:33:58.823Z,70.80
2017-11-24T03:39:00.359Z,70.80
2017-11-24T03:44:02.023Z,70.30
2017-11-24T03:49:03.538Z,70.70
2017-11-24T03:54:05.054Z,71.10
2017-11-24T03:59:06.538Z,71.10
2017-11-24T04:04:08.038Z,71.40
2017-11-24T04:09:09.563Z,71.00
2017-11-24T04:14:11.128Z,70.90
2017-11-24T04:19:12.615Z,70.90
2017-11-24T04:24:14.133Z,70.60
2017-11-24T04:29:16.542Z,70.10
2017-11-24T04:34:18.040Z,70.10
2017-11-24T04:39:19.555Z,69.70
2017-11-24T04:44:21.791Z,70.00
2017-11-24T04:49:23.282Z,69.90
2017-11-24T04:54:24.785Z,70.00
2017-11-24T04:59:26.269Z,69.80
2017-11-24T05:04:34.988Z,69.50
2017-11-24T05:09:36.479Z,69.50
2017-11-24T05:14:37.993Z,69.00
2017-11-24T05:19:39.528Z,69.10
2017-11-24T05:24:41.076Z,68.80
2017-11-24T05:29:42.623Z,69.00
2017-11-24T05:34:44.862Z,69.70
2017-11-24T05:39:46.416Z,69.70
2017-11-24T05:44:47.912Z,70.80
2017-11-24T05:49:49.410Z,72.40
2017-11-24T05:54:50.930Z,75.00
2017-11-24T05:59:52.418Z,76.00
2017-11-24T06:04:53.903Z,76.10
2017-11-24T06:09:56.171Z,76.60
2017-11-24T06:14:58.684Z,76.60
2017-11-24T06:20:00.210Z,76.00
2017-11-24T06:25:01.746Z,76.10
2017-11-24T06:30:03.227Z,76.50
2017-11-24T06:35:05.070Z,76.80
2017-11-24T06:40:06.614Z,76.40
2017-11-24T06:45:08.883Z,76.90
2017-11-24T06:50:10.396Z,76.90
2017-11-24T06:55:11.914Z,76.50
2017-11-24T07:00:13.360Z,75.90
2017-11-24T07:05:15.053Z,75.80
2017-11-24T07:10:16.545Z,75.90
2017-11-24T07:15:18.083Z,76.00
2017-11-24T07:20:19.561Z,76.30
2017-11-24T07:25:21.823Z,75.70
2017-11-24T07:30:23.316Z,75.70
2017-11-24T07:35:25.566Z,75.60
2017-11-24T07:40:27.133Z,75.60
2017-11-24T07:45:28.642Z,75.00
2017-11-24T07:50:31.037Z,74.10
2017-11-24T07:55:33.293Z,74.20
2017-11-24T08:00:34.792Z,74.20
2017-11-24T08:05:36.306Z,74.40
2017-11-24T08:10:37.813Z,74.00
2017-11-24T08:15:40.097Z,73.90
2017-11-24T08:20:42.383Z,73.50
2017-11-24T08:25:44.702Z,73.50
2017-11-24T08:30:46.241Z,73.50
2017-11-24T08:35:48.486Z,73.30
2017-11-24T08:40:50.010Z,73.30
2017-11-24T08:45:51.532Z,73.10
2017-11-24T08:50:53.080Z,72.90
2017-11-24T08:55:54.551Z,73.30
2017-11-24T09:00:56.078Z,72.00
2017-11-24T09:05:57.577Z,71.60
2017-11-24T09:10:59.119Z,70.70
2017-11-24T09:16:00.672Z,70.40
2017-11-24T09:21:02.178Z,70.50
2017-11-24T09:26:03.724Z,70.80
2017-11-24T09:31:05.269Z,69.60
2017-11-24T09:36:06.771Z,69.00
2017-11-24T09:41:08.191Z,68.10
2017-11-24T09:46:10.457Z,67.20
2017-11-24T09:51:11.937Z,67.20
2017-11-24T09:56:14.344Z,67.00
2017-11-24T10:01:15.760Z,67.00
2017-11-24T10:06:17.235Z,66.80
2017-11-24T10:11:18.850Z,66.70
2017-11-24T10:16:20.344Z,67.10
2017-11-24T10:21:28.011Z,67.20
2017-11-24T10:26:30.290Z,66.50
2017-11-24T10:31:32.700Z,67.20
2017-11-24T10:36:34.234Z,67.00
2017-11-24T10:41:36.496Z,66.90
2017-11-24T10:46:38.006Z,66.70
2017-11-24T10:51:39.577Z,67.20
2017-11-24T10:56:41.087Z,67.60
2017-11-24T11:01:42.603Z,67.90
2017-11-24T11:06:44.893Z,67.20
2017-11-24T11:11:46.391Z,67.10
2017-11-24T11:16:47.956Z,67.50
2017-11-24T11:21:49.581Z,67.40
2017-11-24T11:26:51.987Z,66.50
2017-11-24T11:31:53.553Z,66.50
2017-11-24T11:36:55.107Z,66.50
2017-11-24T11:41:57.430Z,66.30
2017-11-24T11:46:58.904Z,66.30
2017-11-24T11:52:00.431Z,65.90
2017-11-24T11:57:02.675Z,65.60
2017-11-24T12:02:04.314Z,65.60
2017-11-24T12:07:05.954Z,65.50
2017-11-24T12:12:08.241Z,65.80
2017-11-24T12:17:10.682Z,66.00
2017-11-24T12:22:19.273Z,66.00
2017-11-24T12:27:20.816Z,66.50
2017-11-24T12:32:23.059Z,66.50
2017-11-24T12:37:24.611Z,66.50
2017-11-24T12:42:26.268Z,66.80
2017-11-24T12:47:27.718Z,66.70
2017-11-24T12:52:29.978Z,66.50
2017-11-24T12:57:31.499Z,66.50
2017-11-24T13:02:33.015Z,66.80
2017-11-24T13:07:34.528Z,66.20
2017-11-24T13:12:36.061Z,66.40
2017-11-24T13:17:38.383Z,66.00
2017-11-24T13:22:39.938Z,65.80
2017-11-24T13:27:41.498Z,66.30
2017-11-24T13:32:43.043Z,66.30
2017-11-24T13:37:44.581Z,66.40
2017-11-24T13:42:46.113Z,66.30
2017-11-24T13:47:47.648Z,67.50
2017-11-24T13:52:49.908Z,70.30
2017-11-24T13:57:51.443Z,70.30
2017-11-24T14:02:52.960Z,70.00
2017-11-24T14:07:54.464Z,70.10
2017-11-24T14:12:55.987Z,70.30
2017-11-24T14:17:57.526Z,70.70
2017-11-24T14:22:59.035Z,70.80
2017-11-24T14:28:01.370Z,71.50
2017-11-24T14:33:02.938Z,71.00
2017-11-24T14:38:04.469Z,71.60
2017-11-24T14:43:06.772Z,71.90
2017-11-24T14:48:08.286Z,71.90
2017-11-24T14:53:09.815Z,72.10
2017-11-24T14:58:11.366Z,72.70
2017-11-24T15:03:13.613Z,72.50
2017-11-24T15:08:15.175Z,72.50
2017-11-24T15:13:16.740Z,67.50
2017-11-24T15:18:18.255Z,72.00
2017-11-24T15:23:19.825Z,74.20
2017-11-24T15:28:21.375Z,73.50
2017-11-24T15:33:23.639Z,76.50
2017-11-24T15:38:25.169Z,76.50
2017-11-24T15:43:26.742Z,78.00
2017-11-24T15:48:28.306Z,77.80
2017-11-24T15:53:29.830Z,78.00
2017-11-24T15:58:32.266Z,78.50
2017-11-24T16:03:33.797Z,78.50
2017-11-24T16:08:36.061Z,80.00
2017-11-24T16:13:38.406Z,80.70
2017-11-24T16:18:39.926Z,80.50
2017-11-24T16:23:42.198Z,80.20
2017-11-24T16:28:44.608Z,79.90
2017-11-24T16:33:46.160Z,79.70
2017-11-24T16:38:48.462Z,79.10
2017-11-24T16:43:49.960Z,79.00
2017-11-24T16:48:51.485Z,78.90
2017-11-24T16:53:53.826Z,80.10
2017-11-24T16:58:55.390Z,80.10
2017-11-24T17:03:56.960Z,81.00
2017-11-24T17:08:58.477Z,81.50
2017-11-24T17:14:00.768Z,83.10
2017-11-24T17:19:03.204Z,83.00
2017-11-24T17:24:04.782Z,82.40
2017-11-24T17:29:06.358Z,82.90
2017-11-24T17:34:08.075Z,83.00
2017-11-24T17:39:09.651Z,82.00
2017-11-24T17:44:11.198Z,83.00
2017-11-24T17:49:13.558Z,83.70
2017-11-24T17:54:15.131Z,83.70
2017-11-24T17:59:17.417Z,86.00
2017-11-24T18:04:19.741Z,84.70
2017-11-24T18:09:21.311Z,84.60
2017-11-24T18:14:22.851Z,84.60
2017-11-24T18:19:25.164Z,85.20
2017-11-24T18:24:26.784Z,85.20
2017-11-24T18:29:29.105Z,82.70
2017-11-24T18:34:30.603Z,82.70
2017-11-24T18:39:32.335Z,82.70
2017-11-24T18:44:33.883Z,82.70
2017-11-24T18:49:36.211Z,85.90
2017-11-24T18:54:37.825Z,85.10
2017-11-24T18:59:39.416Z,85.90
2017-11-24T19:04:41.074Z,85.60
2017-11-24T19:09:43.266Z,86.00
2017-11-24T19:14:45.508Z,85.50
2017-11-24T19:19:47.044Z,85.50
2017-11-24T19:24:48.637Z,85.20
2017-11-24T19:29:50.210Z,84.60
2017-11-24T19:34:52.119Z,84.50
2017-11-24T19:39:53.832Z,85.40
2017-11-24T19:44:55.475Z,86.00
2017-11-24T19:49:57.725Z,87.50
2017-11-24T19:54:59.238Z,87.40
2017-11-24T20:00:00.759Z,87.90
2017-11-24T20:05:02.224Z,88.00
2017-11-24T20:10:03.802Z,88.10
2017-11-24T20:15:05.463Z,88.60
2017-11-24T20:20:07.119Z,88.80
2017-11-24T20:25:08.913Z,88.50
2017-11-24T20:30:11.247Z,89.10
2017-11-24T20:35:12.708Z,88.90
2017-11-24T20:40:15.024Z,89.10
2017-11-24T20:45:16.680Z,88.90
2017-11-24T20:50:18.351Z,88.90
2017-11-24T20:55:20.079Z,88.80
2017-11-24T21:00:22.480Z,89.00
2017-11-24T21:05:24.149Z,89.00
2017-11-24T21:10:26.501Z,88.40
2017-11-24T21:15:28.099Z,88.40
2017-11-24T21:20:30.451Z,88.50
2017-11-24T21:25:32.087Z,88.30
2017-11-24T21:30:33.697Z,88.50
2017-11-24T21:35:35.250Z,88.80
2017-11-24T21:40:36.816Z,88.60
2017-11-24T21:45:38.419Z,88.40
2017-11-24T21:50:40.722Z,89.00
2017-11-24T21:55:42.999Z,89.00
2017-11-24T22:00:45.319Z,89.20
2017-11-24T22:05:46.898Z,89.20
2017-11-24T22:10:48.554Z,88.80
2017-11-24T22:15:50.191Z,88.20
2017-11-24T22:20:52.479Z,88.90
2017-11-24T22:25:54.880Z,88.90
2017-11-24T22:30:56.445Z,88.80
2017-11-24T22:35:58.737Z,88.60
2017-11-24T22:41:00.270Z,88.60
2017-11-24T22:46:01.811Z,88.60
2017-11-24T22:51:03.357Z,88.80
2017-11-24T22:56:04.939Z,89.00
2017-11-24T23:01:06.492Z,89.30
2017-11-24T23:06:08.015Z,89.00
2017-11-24T23:11:09.528Z,89.60
2017-11-24T23:16:11.088Z,89.70
2017-11-24T23:21:12.645Z,89.70
2017-11-24T23:26:14.181Z,89.40
2017-11-24T23:31:15.686Z,89.10
2017-11-24T23:36:17.284Z,88.60
2017-11-24T23:41:18.826Z,88.70
2017-11-24T23:46:20.319Z,88.60
2017-11-24T23:51:21.794Z,88.60
2017-11-24T23:56:23.312Z,88.50
